sensor_id;sensor_type;location;lat;lon;timestamp;P1;durP1;ratioP1;P2;durP2;ratioP2
43817;SDS011;29868;47.360;18.984;2023-03-14T16:39:05;6.93;;;3.67;;
43817;SDS011;29868;47.360;18.984;2023-03-14T16:41:30;7.72;;;4.63;;
43817;SDS011;29868;47.360;18.984;2023-03-14T16:43:56;4.97;;;2.65;;
43817;SDS011;29868;47.360;18.984;2023-03-14T16:46:22;5.57;;;2.25;;
43817;SDS011;29868;47.360;18.984;2023-03-14T16:48:49;5.97;;;3.63;;
43817;SDS011;29868;47.360;18.984;2023-03-14T16:51:15;6.53;;;3.50;;
43817;SDS011;29868;47.360;18.984;2023-03-14T16:53:41;7.25;;;2.30;;
43817;SDS011;29868;47.360;18.984;2023-03-14T16:56:07;3.95;;;1.90;;
43817;SDS011;29868;47.360;18.984;2023-03-14T16:58:33;9.30;;;4.40;;
43817;SDS011;29868;47.360;18.984;2023-03-14T17:00:58;5.70;;;3.20;;
43817;SDS011;29868;47.360;18.984;2023-03-14T17:05:59;6.85;;;2.83;;
43817;SDS011;29868;47.360;18.984;2023-03-14T17:08:24;7.32;;;2.95;;
43817;SDS011;29868;47.360;18.984;2023-03-14T17:10:49;6.80;;;2.58;;
43817;SDS011;29868;47.360;18.984;2023-03-14T17:13:15;5.70;;;2.70;;
43817;SDS011;29868;47.360;18.984;2023-03-14T17:15:45;5.15;;;2.22;;
43817;SDS011;29868;47.360;18.984;2023-03-14T17:18:11;8.18;;;3.90;;
43817;SDS011;29868;47.360;18.984;2023-03-14T17:20:37;9.55;;;3.00;;
43817;SDS011;29868;47.360;18.984;2023-03-14T17:23:02;8.15;;;3.90;;
43817;SDS011;29868;47.360;18.984;2023-03-14T17:25:27;20.95;;;10.90;;
43817;SDS011;29868;47.360;18.984;2023-03-14T17:27:53;31.55;;;13.52;;
43817;SDS011;29868;47.360;18.984;2023-03-14T17:30:18;52.72;;;22.90;;
43817;SDS011;29868;47.360;18.984;2023-03-14T17:32:44;10.18;;;4.68;;
43817;SDS011;29868;47.360;18.984;2023-03-14T17:35:09;7.30;;;3.95;;
43817;SDS011;29868;47.360;18.984;2023-03-14T17:37:34;7.10;;;2.80;;
43817;SDS011;29868;47.360;18.984;2023-03-14T17:40:00;5.97;;;2.97;;
43817;SDS011;29868;47.360;18.984;2023-03-14T17:42:28;7.07;;;2.72;;
43817;SDS011;29868;47.360;18.984;2023-03-14T17:44:55;6.40;;;2.53;;
43817;SDS011;29868;47.360;18.984;2023-03-14T17:47:20;5.55;;;2.30;;
43817;SDS011;29868;47.360;18.984;2023-03-14T17:49:46;5.28;;;2.28;;
43817;SDS011;29868;47.360;18.984;2023-03-14T17:52:11;5.40;;;2.17;;
43817;SDS011;29868;47.360;18.984;2023-03-14T17:54:37;5.57;;;2.60;;
43817;SDS011;29868;47.360;18.984;2023-03-14T17:57:03;6.00;;;2.50;;
43817;SDS011;29868;47.360;18.984;2023-03-14T17:59:28;6.03;;;2.50;;
43817;SDS011;29868;47.360;18.984;2023-03-14T18:01:54;4.03;;;2.10;;
43817;SDS011;29868;47.360;18.984;2023-03-14T18:04:19;4.78;;;2.63;;
43817;SDS011;29868;47.360;18.984;2023-03-14T18:06:45;5.50;;;2.50;;
43817;SDS011;29868;47.360;18.984;2023-03-14T18:09:10;5.20;;;2.40;;
43817;SDS011;29868;47.360;18.984;2023-03-14T18:11:35;3.28;;;1.70;;
43817;SDS011;29868;47.360;18.984;2023-03-14T18:14:01;3.08;;;1.70;;
43817;SDS011;29868;47.360;18.984;2023-03-14T18:16:28;4.75;;;2.25;;
43817;SDS011;29868;47.360;18.984;2023-03-14T18:18:55;4.82;;;1.95;;
43817;SDS011;29868;47.360;18.984;2023-03-14T18:21:23;3.63;;;2.00;;
43817;SDS011;29868;47.360;18.984;2023-03-14T18:23:49;4.70;;;2.13;;
43817;SDS011;29868;47.360;18.984;2023-03-14T18:26:15;3.45;;;2.00;;
43817;SDS011;29868;47.360;18.984;2023-03-14T18:28:41;7.20;;;2.67;;
43817;SDS011;29868;47.360;18.984;2023-03-14T18:31:07;4.82;;;2.40;;
43817;SDS011;29868;47.360;18.984;2023-03-14T18:33:33;4.88;;;2.55;;
43817;SDS011;29868;47.360;18.984;2023-03-14T18:36:01;5.20;;;2.55;;
43817;SDS011;29868;47.360;18.984;2023-03-14T18:38:27;4.93;;;2.70;;
43817;SDS011;29868;47.360;18.984;2023-03-14T18:40:52;6.10;;;2.75;;
43817;SDS011;29868;47.360;18.984;2023-03-14T18:43:18;5.85;;;2.50;;
43817;SDS011;29868;47.360;18.984;2023-03-14T18:45:43;8.23;;;2.90;;
43817;SDS011;29868;47.360;18.984;2023-03-14T18:48:08;6.60;;;3.25;;
43817;SDS011;29868;47.360;18.984;2023-03-14T18:50:34;5.25;;;2.83;;
43817;SDS011;29868;47.360;18.984;2023-03-14T18:52:59;5.13;;;2.30;;
43817;SDS011;29868;47.360;18.984;2023-03-14T18:55:25;6.20;;;2.55;;
43817;SDS011;29868;47.360;18.984;2023-03-14T18:57:51;7.28;;;3.20;;
43817;SDS011;29868;47.360;18.984;2023-03-14T19:00:17;7.75;;;3.30;;
43817;SDS011;29868;47.360;18.984;2023-03-14T19:02:44;9.52;;;3.80;;
43817;SDS011;29868;47.360;18.984;2023-03-14T19:05:09;6.65;;;3.58;;
43817;SDS011;29868;47.360;18.984;2023-03-14T19:07:37;11.13;;;5.85;;
43817;SDS011;29868;47.360;18.984;2023-03-14T19:10:03;10.88;;;5.78;;
43817;SDS011;29868;47.360;18.984;2023-03-14T19:12:29;11.15;;;5.07;;
43817;SDS011;29868;47.360;18.984;2023-03-14T19:14:55;9.13;;;4.07;;
43817;SDS011;29868;47.360;18.984;2023-03-14T19:17:20;8.05;;;4.45;;
43817;SDS011;29868;47.360;18.984;2023-03-14T19:19:46;8.30;;;4.25;;
43817;SDS011;29868;47.360;18.984;2023-03-14T19:22:12;10.90;;;5.55;;
43817;SDS011;29868;47.360;18.984;2023-03-14T19:24:37;8.95;;;5.60;;
43817;SDS011;29868;47.360;18.984;2023-03-14T19:27:03;10.15;;;5.00;;
43817;SDS011;29868;47.360;18.984;2023-03-14T19:29:28;10.07;;;5.18;;
43817;SDS011;29868;47.360;18.984;2023-03-14T19:31:54;14.38;;;7.10;;
43817;SDS011;29868;47.360;18.984;2023-03-14T19:34:20;15.18;;;7.20;;
43817;SDS011;29868;47.360;18.984;2023-03-14T19:36:46;14.20;;;8.48;;
43817;SDS011;29868;47.360;18.984;2023-03-14T19:39:12;10.60;;;6.70;;
43817;SDS011;29868;47.360;18.984;2023-03-14T19:41:37;10.20;;;6.10;;
43817;SDS011;29868;47.360;18.984;2023-03-14T19:44:03;13.13;;;7.35;;
43817;SDS011;29868;47.360;18.984;2023-03-14T19:46:28;13.50;;;6.95;;
43817;SDS011;29868;47.360;18.984;2023-03-14T19:48:56;14.68;;;9.13;;
43817;SDS011;29868;47.360;18.984;2023-03-14T19:51:22;14.68;;;8.48;;
43817;SDS011;29868;47.360;18.984;2023-03-14T19:53:48;15.80;;;8.80;;
43817;SDS011;29868;47.360;18.984;2023-03-14T19:56:13;13.52;;;7.35;;
43817;SDS011;29868;47.360;18.984;2023-03-14T19:58:39;13.30;;;7.10;;
43817;SDS011;29868;47.360;18.984;2023-03-14T20:01:05;12.82;;;7.43;;
43817;SDS011;29868;47.360;18.984;2023-03-14T20:03:32;14.35;;;7.75;;
43817;SDS011;29868;47.360;18.984;2023-03-14T20:06:02;11.82;;;6.65;;
43817;SDS011;29868;47.360;18.984;2023-03-14T20:08:35;9.43;;;4.60;;
43817;SDS011;29868;47.360;18.984;2023-03-14T20:11:05;8.98;;;3.90;;
43817;SDS011;29868;47.360;18.984;2023-03-14T20:13:32;7.40;;;3.78;;
43817;SDS011;29868;47.360;18.984;2023-03-14T20:15:58;5.40;;;3.22;;
43817;SDS011;29868;47.360;18.984;2023-03-14T20:18:23;5.38;;;2.55;;
43817;SDS011;29868;47.360;18.984;2023-03-14T20:20:49;5.72;;;2.15;;
43817;SDS011;29868;47.360;18.984;2023-03-14T20:23:15;4.95;;;2.30;;
43817;SDS011;29868;47.360;18.984;2023-03-14T20:25:40;4.60;;;2.13;;
43817;SDS011;29868;47.360;18.984;2023-03-14T20:28:06;4.05;;;1.83;;
43817;SDS011;29868;47.360;18.984;2023-03-14T20:30:32;3.60;;;1.60;;
43817;SDS011;29868;47.360;18.984;2023-03-14T20:32:58;3.95;;;1.80;;
43817;SDS011;29868;47.360;18.984;2023-03-14T20:35:23;5.20;;;1.70;;
43817;SDS011;29868;47.360;18.984;2023-03-14T20:37:52;4.20;;;1.98;;
43817;SDS011;29868;47.360;18.984;2023-03-14T20:40:20;4.88;;;1.95;;
43817;SDS011;29868;47.360;18.984;2023-03-14T20:42:47;4.97;;;2.33;;
43817;SDS011;29868;47.360;18.984;2023-03-14T20:45:13;5.32;;;1.88;;
43817;SDS011;29868;47.360;18.984;2023-03-14T20:47:39;6.28;;;2.58;;
43817;SDS011;29868;47.360;18.984;2023-03-14T20:50:05;5.03;;;2.38;;
43817;SDS011;29868;47.360;18.984;2023-03-14T20:52:31;5.25;;;2.47;;
43817;SDS011;29868;47.360;18.984;2023-03-14T20:54:56;4.70;;;2.42;;
43817;SDS011;29868;47.360;18.984;2023-03-14T20:57:21;6.00;;;2.30;;
43817;SDS011;29868;47.360;18.984;2023-03-14T20:59:47;4.18;;;2.15;;
43817;SDS011;29868;47.360;18.984;2023-03-14T21:02:12;4.80;;;2.25;;
43817;SDS011;29868;47.360;18.984;2023-03-14T21:04:39;5.03;;;2.83;;
43817;SDS011;29868;47.360;18.984;2023-03-14T21:07:04;6.72;;;2.90;;
43817;SDS011;29868;47.360;18.984;2023-03-14T21:09:29;5.72;;;3.13;;
43817;SDS011;29868;47.360;18.984;2023-03-14T21:11:55;6.57;;;3.50;;
43817;SDS011;29868;47.360;18.984;2023-03-14T21:14:20;6.97;;;3.05;;
43817;SDS011;29868;47.360;18.984;2023-03-14T21:16:46;5.63;;;2.90;;
43817;SDS011;29868;47.360;18.984;2023-03-14T21:19:12;7.13;;;3.65;;
43817;SDS011;29868;47.360;18.984;2023-03-14T21:21:38;39.83;;;14.80;;
43817;SDS011;29868;47.360;18.984;2023-03-14T21:24:04;32.40;;;13.23;;
43817;SDS011;29868;47.360;18.984;2023-03-14T21:26:30;42.58;;;18.60;;
43817;SDS011;29868;47.360;18.984;2023-03-14T21:28:56;26.98;;;12.65;;
43817;SDS011;29868;47.360;18.984;2023-03-14T21:31:22;31.13;;;15.50;;
43817;SDS011;29868;47.360;18.984;2023-03-14T21:33:48;16.42;;;8.07;;
43817;SDS011;29868;47.360;18.984;2023-03-14T21:36:13;15.40;;;8.40;;
43817;SDS011;29868;47.360;18.984;2023-03-14T21:38:39;10.65;;;6.68;;
43817;SDS011;29868;47.360;18.984;2023-03-14T21:41:04;8.65;;;4.68;;
43817;SDS011;29868;47.360;18.984;2023-03-14T21:43:32;8.82;;;4.95;;
43817;SDS011;29868;47.360;18.984;2023-03-14T21:45:57;7.40;;;4.13;;
43817;SDS011;29868;47.360;18.984;2023-03-14T21:48:23;8.27;;;4.38;;
43817;SDS011;29868;47.360;18.984;2023-03-14T21:50:49;8.65;;;4.80;;
43817;SDS011;29868;47.360;18.984;2023-03-14T21:53:14;8.05;;;4.82;;
43817;SDS011;29868;47.360;18.984;2023-03-14T21:55:40;8.90;;;5.07;;
43817;SDS011;29868;47.360;18.984;2023-03-14T21:58:08;9.27;;;4.93;;
43817;SDS011;29868;47.360;18.984;2023-03-14T22:00:38;10.95;;;5.88;;
43817;SDS011;29868;47.360;18.984;2023-03-14T22:05:43;13.05;;;6.50;;
43817;SDS011;29868;47.360;18.984;2023-03-14T22:08:09;11.13;;;5.70;;
43817;SDS011;29868;47.360;18.984;2023-03-14T22:10:34;11.70;;;5.90;;
43817;SDS011;29868;47.360;18.984;2023-03-14T22:13:07;10.88;;;6.20;;
43817;SDS011;29868;47.360;18.984;2023-03-14T22:15:33;13.88;;;7.05;;
43817;SDS011;29868;47.360;18.984;2023-03-14T22:17:58;13.35;;;7.22;;
43817;SDS011;29868;47.360;18.984;2023-03-14T22:20:23;11.23;;;7.40;;
43817;SDS011;29868;47.360;18.984;2023-03-14T22:22:49;12.75;;;7.25;;
43817;SDS011;29868;47.360;18.984;2023-03-14T22:25:14;13.32;;;7.63;;
43817;SDS011;29868;47.360;18.984;2023-03-14T22:27:40;12.32;;;7.65;;
43817;SDS011;29868;47.360;18.984;2023-03-14T22:30:05;12.50;;;8.05;;
43817;SDS011;29868;47.360;18.984;2023-03-14T22:32:31;12.88;;;8.05;;
43817;SDS011;29868;47.360;18.984;2023-03-14T22:34:56;12.75;;;8.30;;
43817;SDS011;29868;47.360;18.984;2023-03-14T22:37:22;15.05;;;8.73;;
43817;SDS011;29868;47.360;18.984;2023-03-14T22:39:49;15.13;;;8.13;;
43817;SDS011;29868;47.360;18.984;2023-03-14T22:42:14;14.52;;;8.07;;
43817;SDS011;29868;47.360;18.984;2023-03-14T22:44:40;13.18;;;8.27;;
43817;SDS011;29868;47.360;18.984;2023-03-14T22:47:05;11.45;;;7.22;;
43817;SDS011;29868;47.360;18.984;2023-03-14T22:49:31;12.38;;;6.88;;
43817;SDS011;29868;47.360;18.984;2023-03-14T22:51:56;11.88;;;6.78;;
43817;SDS011;29868;47.360;18.984;2023-03-14T22:54:22;11.75;;;6.70;;
43817;SDS011;29868;47.360;18.984;2023-03-14T22:56:47;9.98;;;6.35;;
43817;SDS011;29868;47.360;18.984;2023-03-14T22:59:13;11.10;;;6.72;;
43817;SDS011;29868;47.360;18.984;2023-03-14T23:01:38;11.90;;;6.70;;
43817;SDS011;29868;47.360;18.984;2023-03-14T23:04:04;11.77;;;7.00;;
43817;SDS011;29868;47.360;18.984;2023-03-14T23:06:30;11.05;;;7.28;;
43817;SDS011;29868;47.360;18.984;2023-03-14T23:08:55;11.30;;;7.53;;
43817;SDS011;29868;47.360;18.984;2023-03-14T23:11:21;11.40;;;7.32;;
43817;SDS011;29868;47.360;18.984;2023-03-14T23:13:50;15.18;;;7.72;;
43817;SDS011;29868;47.360;18.984;2023-03-14T23:16:16;11.48;;;7.40;;
43817;SDS011;29868;47.360;18.984;2023-03-14T23:18:42;10.65;;;7.07;;
43817;SDS011;29868;47.360;18.984;2023-03-14T23:23:37;8.93;;;4.55;;
43817;SDS011;29868;47.360;18.984;2023-03-14T23:26:05;6.75;;;4.03;;
43817;SDS011;29868;47.360;18.984;2023-03-14T23:28:32;6.07;;;3.42;;
43817;SDS011;29868;47.360;18.984;2023-03-14T23:30:58;4.97;;;3.08;;
43817;SDS011;29868;47.360;18.984;2023-03-14T23:33:24;6.15;;;3.22;;
43817;SDS011;29868;47.360;18.984;2023-03-14T23:35:51;5.47;;;3.28;;
43817;SDS011;29868;47.360;18.984;2023-03-14T23:38:18;4.40;;;2.85;;
43817;SDS011;29868;47.360;18.984;2023-03-14T23:40:45;5.78;;;2.80;;
43817;SDS011;29868;47.360;18.984;2023-03-14T23:43:10;3.58;;;2.22;;
43817;SDS011;29868;47.360;18.984;2023-03-14T23:45:36;3.53;;;2.13;;
43817;SDS011;29868;47.360;18.984;2023-03-14T23:48:02;3.17;;;1.60;;
43817;SDS011;29868;47.360;18.984;2023-03-14T23:50:27;2.92;;;1.65;;
43817;SDS011;29868;47.360;18.984;2023-03-14T23:52:53;3.33;;;1.42;;
43817;SDS011;29868;47.360;18.984;2023-03-14T23:55:18;2.05;;;1.48;;
43817;SDS011;29868;47.360;18.984;2023-03-14T23:57:44;3.53;;;1.55;;
